Lassellsville, New York
Current Conditions -  °F | °C
As of 10:35 AM on Saturday 25 Oct 2014 (Local Time) from KNY0 Reporting Station
Broken Clouds Broken Clouds  
Wind Chill: 46°   Ceiling: 2700
Heat Index: 50°   Visibility: 7mi
Dew Point: 44°   Wind: 10mph
Humidity: 81%   Direction: 270°W
Pressure: 29.8"   Gusts: NA
Location:  43.035°N, 74.6217°W
Report Text: KNY0 251435Z AUTO 27009KT 7SM BKN027 10/07 A2980 RMK AO2 T00990067
Loading
Personal Weather Stations






























Interactive Weather Map
Tropical Storm Tracking
New forecast layout! Learn more

10-Day Weather Forecast

Advertisements
Track Severe Weather on mobile